createdAt,value
2018-12-25T00:00:22.098Z,21.12
2018-12-25T00:01:22.075Z,21.06
2018-12-25T00:02:22.063Z,21.12
2018-12-25T00:03:22.450Z,21.16
2018-12-25T00:04:22.054Z,21.11
2018-12-25T00:05:22.053Z,21.12
2018-12-25T00:06:22.205Z,21.19
2018-12-25T00:07:22.005Z,21.22
2018-12-25T00:08:21.994Z,21.28
2018-12-25T00:09:21.984Z,21.30
2018-12-25T00:10:22.002Z,21.31
2018-12-25T00:11:21.963Z,21.31
2018-12-25T00:12:21.957Z,21.34
2018-12-25T00:13:21.944Z,21.31
2018-12-25T00:14:21.927Z,21.36
2018-12-25T00:15:21.969Z,21.34
2018-12-25T00:16:21.920Z,21.38
2018-12-25T00:17:21.903Z,21.37
2018-12-25T00:18:21.886Z,21.37
2018-12-25T00:19:21.880Z,21.37
2018-12-25T00:20:21.866Z,21.40
2018-12-25T00:21:21.868Z,21.37
2018-12-25T00:22:21.854Z,21.38
2018-12-25T00:23:21.865Z,21.37
2018-12-25T00:24:21.824Z,21.36
2018-12-25T00:25:21.821Z,21.40
2018-12-25T00:26:21.813Z,21.43
2018-12-25T00:27:21.793Z,21.40
2018-12-25T00:28:21.790Z,21.43
2018-12-25T00:29:21.773Z,21.48
2018-12-25T00:30:21.752Z,21.43
2018-12-25T00:31:21.760Z,21.38
2018-12-25T00:32:21.734Z,21.45
2018-12-25T00:33:21.722Z,21.37
2018-12-25T00:34:21.729Z,21.46
2018-12-25T00:35:21.700Z,21.42
2018-12-25T00:36:21.703Z,21.38
2018-12-25T00:37:21.692Z,21.42
2018-12-25T00:38:21.666Z,21.43
2018-12-25T00:39:21.658Z,21.37
2018-12-25T00:40:21.661Z,21.36
2018-12-25T00:41:21.663Z,21.38
2018-12-25T00:42:21.627Z,21.49
2018-12-25T00:43:21.612Z,21.36
2018-12-25T00:44:21.600Z,21.33
2018-12-25T00:45:21.589Z,21.43
2018-12-25T00:46:21.612Z,21.43
2018-12-25T00:47:21.568Z,21.36
2018-12-25T00:48:21.567Z,21.37
2018-12-25T00:49:21.550Z,21.37
2018-12-25T00:50:21.545Z,21.37
2018-12-25T00:51:21.540Z,21.34
2018-12-25T00:52:21.554Z,21.34
2018-12-25T00:53:21.505Z,21.42
2018-12-25T00:54:21.508Z,21.37
2018-12-25T00:55:21.487Z,21.27
2018-12-25T00:56:21.491Z,21.31
2018-12-25T00:57:21.460Z,21.34
2018-12-25T00:58:21.470Z,21.34
2018-12-25T00:59:21.441Z,21.27
2018-12-25T01:00:21.432Z,21.22
2018-12-25T01:01:21.431Z,21.27
2018-12-25T01:02:21.405Z,21.21
2018-12-25T01:03:21.395Z,21.22
2018-12-25T01:04:21.410Z,21.22
2018-12-25T01:05:21.382Z,21.18
2018-12-25T01:06:21.390Z,21.21
2018-12-25T01:07:21.358Z,21.28
2018-12-25T01:08:21.354Z,21.26
2018-12-25T01:09:21.337Z,21.24
2018-12-25T01:10:21.316Z,21.27
2018-12-25T01:11:21.350Z,21.22
2018-12-25T01:12:21.301Z,21.09
2018-12-25T01:13:21.286Z,21.15
2018-12-25T01:14:21.274Z,21.13
2018-12-25T01:15:21.268Z,21.12
2018-12-25T01:16:21.261Z,21.22
2018-12-25T01:17:21.258Z,21.12
2018-12-25T01:18:21.238Z,21.18
2018-12-25T01:19:23.414Z,21.09
2018-12-25T01:20:21.220Z,21.18
2018-12-25T01:21:21.198Z,21.26
2018-12-25T01:22:21.206Z,21.21
2018-12-25T01:23:21.179Z,21.26
2018-12-25T01:24:21.182Z,21.27
2018-12-25T01:25:21.155Z,21.18
2018-12-25T01:26:21.144Z,21.26
2018-12-25T01:27:21.149Z,21.27
2018-12-25T01:28:21.126Z,21.31
2018-12-25T01:29:21.110Z,21.31
2018-12-25T01:30:21.110Z,21.26
2018-12-25T01:31:21.088Z,21.33
2018-12-25T01:32:21.092Z,21.34
2018-12-25T01:33:21.075Z,21.37
2018-12-25T01:34:21.067Z,21.33
2018-12-25T01:35:21.044Z,21.36
2018-12-25T01:36:21.042Z,21.42
2018-12-25T01:37:21.041Z,21.34
2018-12-25T01:38:21.014Z,21.36
2018-12-25T01:39:21.007Z,21.37
2018-12-25T01:40:20.999Z,21.37
2018-12-25T01:41:20.980Z,21.37
2018-12-25T01:42:21.005Z,21.33
2018-12-25T01:43:20.959Z,21.45
2018-12-25T01:44:20.946Z,21.37
2018-12-25T01:45:20.943Z,21.40
2018-12-25T01:46:20.931Z,21.36
2018-12-25T01:47:20.936Z,21.43
2018-12-25T01:48:20.922Z,21.46
2018-12-25T01:49:20.892Z,21.37
2018-12-25T01:50:20.883Z,21.38
2018-12-25T01:51:20.875Z,21.43
2018-12-25T01:52:20.873Z,21.40
2018-12-25T01:53:20.849Z,21.40
2018-12-25T01:54:20.837Z,21.36
2018-12-25T01:55:20.847Z,21.40
2018-12-25T01:56:20.826Z,21.38
2018-12-25T01:57:20.821Z,21.37
2018-12-25T01:58:20.792Z,21.43
2018-12-25T01:59:20.780Z,21.36
2018-12-25T02:00:20.777Z,21.37
2018-12-25T02:01:20.772Z,21.36
2018-12-25T02:02:20.768Z,21.36
2018-12-25T02:03:20.738Z,21.36
2018-12-25T02:04:20.729Z,21.33
2018-12-25T02:05:20.717Z,21.37
2018-12-25T02:06:20.707Z,21.38
2018-12-25T02:07:20.746Z,21.42
2018-12-25T02:08:20.686Z,21.36
2018-12-25T02:09:20.689Z,21.33
2018-12-25T02:10:20.665Z,21.38
2018-12-25T02:11:20.651Z,21.33
2018-12-25T02:12:20.640Z,21.36
2018-12-25T02:13:20.654Z,21.30
2018-12-25T02:14:20.617Z,21.36
2018-12-25T02:15:20.609Z,21.30
2018-12-25T02:16:20.602Z,21.28
2018-12-25T02:17:20.587Z,21.31
2018-12-25T02:18:20.596Z,21.30
2018-12-25T02:19:20.573Z,21.30
2018-12-25T02:20:20.553Z,21.27
2018-12-25T02:21:20.548Z,21.31
2018-12-25T02:22:20.533Z,21.26
2018-12-25T02:23:20.537Z,21.18
2018-12-25T02:24:20.515Z,21.26
2018-12-25T02:25:20.518Z,21.30
2018-12-25T02:26:20.494Z,21.22
2018-12-25T02:27:20.487Z,21.22
2018-12-25T02:28:20.480Z,21.22
2018-12-25T02:29:20.453Z,21.19
2018-12-25T02:30:20.444Z,21.27
2018-12-25T02:31:20.452Z,21.22
2018-12-25T02:32:20.429Z,21.11
2018-12-25T02:33:20.427Z,21.16
2018-12-25T02:34:20.410Z,21.12
2018-12-25T02:35:20.395Z,21.16
2018-12-25T02:36:20.382Z,21.24
2018-12-25T02:37:20.391Z,21.11
2018-12-25T02:38:20.381Z,21.19
2018-12-25T02:39:20.348Z,21.15
2018-12-25T02:40:20.334Z,21.11
2018-12-25T02:41:20.324Z,21.26
2018-12-25T02:42:20.315Z,21.12
2018-12-25T02:43:20.339Z,21.22
2018-12-25T02:44:20.296Z,21.22
2018-12-25T02:45:20.287Z,21.27
2018-12-25T02:46:20.275Z,21.24
2018-12-25T02:47:20.264Z,21.24
2018-12-25T02:48:20.267Z,21.19
2018-12-25T02:49:20.248Z,21.19
2018-12-25T02:50:20.235Z,21.22
2018-12-25T02:51:20.214Z,21.22
2018-12-25T02:52:20.210Z,21.26
2018-12-25T02:53:20.207Z,21.21
2018-12-25T02:54:20.190Z,21.27
2018-12-25T02:55:20.195Z,21.27
2018-12-25T02:56:20.173Z,21.27
2018-12-25T02:57:20.152Z,21.27
2018-12-25T02:58:20.162Z,21.33
2018-12-25T02:59:20.128Z,21.31
2018-12-25T03:00:20.127Z,21.30
2018-12-25T03:01:20.121Z,21.27
2018-12-25T03:02:20.096Z,21.38
2018-12-25T03:03:20.112Z,21.28
2018-12-25T03:04:20.079Z,21.27
2018-12-25T03:05:20.063Z,21.34
2018-12-25T03:06:20.051Z,21.26
2018-12-25T03:07:20.058Z,21.31
2018-12-25T03:08:20.029Z,21.33
2018-12-25T03:09:20.035Z,21.36
2018-12-25T03:10:20.006Z,21.30
2018-12-25T03:11:19.999Z,21.36
2018-12-25T03:12:19.986Z,21.36
2018-12-25T03:13:19.992Z,21.31
2018-12-25T03:14:19.992Z,21.40
2018-12-25T03:15:19.959Z,21.37
2018-12-25T03:16:19.941Z,21.33
2018-12-25T03:17:19.932Z,21.28
2018-12-25T03:18:19.923Z,21.37
2018-12-25T03:19:19.940Z,21.33
2018-12-25T03:20:19.897Z,21.37
2018-12-25T03:21:19.888Z,21.36
2018-12-25T03:22:19.878Z,21.38
2018-12-25T03:23:19.870Z,21.43
2018-12-25T03:24:19.876Z,21.38
2018-12-25T03:25:19.866Z,21.38
2018-12-25T03:26:19.841Z,21.40
2018-12-25T03:27:19.823Z,21.36
2018-12-25T03:28:19.818Z,21.34
2018-12-25T03:29:19.825Z,21.36
2018-12-25T03:30:19.789Z,21.36
2018-12-25T03:31:19.798Z,21.34
2018-12-25T03:32:19.766Z,21.38
2018-12-25T03:33:19.762Z,21.34
2018-12-25T03:34:19.762Z,21.37
2018-12-25T03:35:19.734Z,21.42
2018-12-25T03:36:19.727Z,21.36
2018-12-25T03:37:19.736Z,21.37
2018-12-25T03:38:19.715Z,21.34
2018-12-25T03:39:19.703Z,21.34
2018-12-25T03:40:19.679Z,21.37
2018-12-25T03:41:19.674Z,21.38
2018-12-25T03:42:19.683Z,21.40
2018-12-25T03:43:19.666Z,21.43
2018-12-25T03:44:19.653Z,21.42
2018-12-25T03:45:19.625Z,21.36
2018-12-25T03:46:19.618Z,21.40
2018-12-25T03:47:19.608Z,21.37
2018-12-25T03:48:19.594Z,21.34
2018-12-25T03:49:19.608Z,21.36
2018-12-25T03:50:19.570Z,21.34
2018-12-25T03:51:19.558Z,21.40
2018-12-25T03:52:19.694Z,21.38
2018-12-25T03:53:19.542Z,21.37
2018-12-25T03:54:19.546Z,21.40
2018-12-25T03:55:19.526Z,21.36
2018-12-25T03:56:19.508Z,21.37
2018-12-25T03:57:19.495Z,21.37
2018-12-25T03:58:19.493Z,21.38
2018-12-25T03:59:19.511Z,21.38
2018-12-25T04:00:19.459Z,21.33
2018-12-25T04:01:19.466Z,21.38
2018-12-25T04:02:19.443Z,21.34
2018-12-25T04:03:19.433Z,21.43
2018-12-25T04:04:19.426Z,21.37
2018-12-25T04:05:19.422Z,21.34
2018-12-25T04:06:19.394Z,21.37
2018-12-25T04:07:19.394Z,21.34
2018-12-25T04:08:19.384Z,21.34
2018-12-25T04:09:19.363Z,21.33
2018-12-25T04:10:19.377Z,21.34
2018-12-25T04:11:19.353Z,21.38
2018-12-25T04:12:19.332Z,21.37
2018-12-25T04:13:19.334Z,21.37
2018-12-25T04:14:19.313Z,21.38
2018-12-25T04:15:19.328Z,21.34
2018-12-25T04:16:19.292Z,21.40
2018-12-25T04:17:19.284Z,21.34
2018-12-25T04:18:19.270Z,21.26
2018-12-25T04:19:19.270Z,21.27
2018-12-25T04:20:19.994Z,21.31
2018-12-25T04:21:19.230Z,21.31
2018-12-25T04:22:19.227Z,21.28
2018-12-25T04:23:19.213Z,21.27
2018-12-25T04:24:19.203Z,21.21
2018-12-25T04:25:19.212Z,21.31
2018-12-25T04:26:19.176Z,21.24
2018-12-25T04:27:19.174Z,21.27
2018-12-25T04:28:19.154Z,21.27
2018-12-25T04:29:19.153Z,21.18
2018-12-25T04:30:19.160Z,21.26
2018-12-25T04:31:19.124Z,21.26
2018-12-25T04:32:19.118Z,21.19
2018-12-25T04:33:19.108Z,21.27
2018-12-25T04:34:19.105Z,21.19
2018-12-25T04:35:19.095Z,21.27
2018-12-25T04:36:19.070Z,21.26
2018-12-25T04:37:19.055Z,21.24
2018-12-25T04:38:19.053Z,21.26
2018-12-25T04:39:19.035Z,21.27
2018-12-25T04:40:19.036Z,21.24
2018-12-25T04:41:19.012Z,21.08
2018-12-25T04:42:19.005Z,21.15
2018-12-25T04:43:18.998Z,21.16
2018-12-25T04:44:18.987Z,21.21
2018-12-25T04:45:18.988Z,21.12
2018-12-25T04:46:18.961Z,21.24
2018-12-25T04:47:18.946Z,21.24
2018-12-25T04:48:18.937Z,21.27
2018-12-25T04:49:18.923Z,21.26
2018-12-25T04:50:18.940Z,21.11
2018-12-25T04:51:18.909Z,21.18
2018-12-25T04:52:18.897Z,21.24
2018-12-25T04:53:18.880Z,21.21
2018-12-25T04:54:18.872Z,21.15
2018-12-25T04:55:18.908Z,21.22
2018-12-25T04:56:18.860Z,21.13
2018-12-25T04:57:18.839Z,21.11
2018-12-25T04:58:18.834Z,21.27
2018-12-25T04:59:18.821Z,21.19
2018-12-25T05:00:18.804Z,21.22
2018-12-25T05:01:18.807Z,21.13
2018-12-25T05:02:18.798Z,21.18
2018-12-25T05:03:18.772Z,21.18
2018-12-25T05:04:18.763Z,21.22
2018-12-25T05:05:18.752Z,21.13
2018-12-25T05:06:18.755Z,21.15
2018-12-25T05:07:18.729Z,21.16
2018-12-25T05:08:18.734Z,21.16
2018-12-25T05:09:18.706Z,21.19
2018-12-25T05:10:18.694Z,21.27
2018-12-25T05:11:18.699Z,21.27
2018-12-25T05:12:18.680Z,21.24
2018-12-25T05:13:18.661Z,21.13
2018-12-25T05:14:18.666Z,21.26
2018-12-25T05:15:18.641Z,21.22
2018-12-25T05:16:18.654Z,21.18
2018-12-25T05:17:18.624Z,21.22
2018-12-25T05:18:18.612Z,21.26
2018-12-25T05:19:18.604Z,21.26
2018-12-25T05:20:18.600Z,21.22
2018-12-25T05:21:18.602Z,21.36
2018-12-25T05:22:18.566Z,21.28
2018-12-25T05:23:18.553Z,21.30
2018-12-25T05:24:18.541Z,21.31
2018-12-25T05:25:18.531Z,21.31
2018-12-25T05:26:18.551Z,21.34
2018-12-25T05:27:18.515Z,21.31
2018-12-25T05:28:18.497Z,21.28
2018-12-25T05:29:18.491Z,21.24
2018-12-25T05:30:18.475Z,21.34
2018-12-25T05:31:18.481Z,21.34
2018-12-25T05:32:18.461Z,21.34
2018-12-25T05:33:18.462Z,21.36
2018-12-25T05:34:18.431Z,21.38
2018-12-25T05:35:18.420Z,21.33
2018-12-25T05:36:18.429Z,21.36
2018-12-25T05:37:18.398Z,21.34
2018-12-25T05:38:18.393Z,21.38
2018-12-25T05:39:18.401Z,21.34
2018-12-25T05:40:18.365Z,21.37
2018-12-25T05:41:18.372Z,21.33
2018-12-25T05:42:18.348Z,21.36
2018-12-25T05:43:18.341Z,21.37
2018-12-25T05:44:18.325Z,21.37
2018-12-25T05:45:18.312Z,21.37
2018-12-25T05:46:18.327Z,21.38
2018-12-25T05:47:18.289Z,21.42
2018-12-25T05:48:18.278Z,21.37
2018-12-25T05:49:18.269Z,21.34
2018-12-25T05:50:18.263Z,21.38
2018-12-25T05:51:18.284Z,21.34
2018-12-25T05:52:18.250Z,21.38
2018-12-25T05:53:18.229Z,21.37
2018-12-25T05:54:18.222Z,21.31
2018-12-25T05:55:19.419Z,21.34
2018-12-25T05:56:18.204Z,21.33
2018-12-25T05:57:18.208Z,21.30
2018-12-25T05:58:18.184Z,21.26
2018-12-25T05:59:18.162Z,21.30
2018-12-25T06:00:18.160Z,21.27
2018-12-25T06:01:18.144Z,21.21
2018-12-25T06:02:18.151Z,21.18
2018-12-25T06:03:18.117Z,21.26
2018-12-25T06:04:18.118Z,21.27
2018-12-25T06:05:18.094Z,21.26
2018-12-25T06:06:18.085Z,21.12
2018-12-25T06:07:18.091Z,21.13
2018-12-25T06:08:18.062Z,21.11
2018-12-25T06:09:18.053Z,21.12
2018-12-25T06:10:18.047Z,21.11
2018-12-25T06:11:18.028Z,21.15
2018-12-25T06:12:18.041Z,21.15
2018-12-25T06:13:18.013Z,21.18
2018-12-25T06:14:17.994Z,21.19
2018-12-25T06:15:17.985Z,21.13
2018-12-25T06:16:17.982Z,21.26
2018-12-25T06:17:17.990Z,21.24
2018-12-25T06:18:17.952Z,21.27
2018-12-25T06:19:17.955Z,21.30
2018-12-25T06:20:17.933Z,21.38
2018-12-25T06:21:17.929Z,21.34
2018-12-25T06:22:17.941Z,21.38
2018-12-25T06:23:17.901Z,21.45
2018-12-25T06:24:17.888Z,21.46
2018-12-25T06:25:17.882Z,21.55
2018-12-25T06:26:17.864Z,21.51
2018-12-25T06:27:17.870Z,21.55
2018-12-25T06:28:17.857Z,21.55
2018-12-25T06:29:17.847Z,21.56
2018-12-25T06:30:17.828Z,21.55
2018-12-25T06:31:17.827Z,21.55
2018-12-25T06:32:17.826Z,21.68
2018-12-25T06:33:17.790Z,21.66
2018-12-25T06:34:17.787Z,21.67
2018-12-25T06:35:17.767Z,21.61
2018-12-25T06:36:17.757Z,21.67
2018-12-25T06:37:17.765Z,21.63
2018-12-25T06:38:17.734Z,21.64
2018-12-25T06:39:17.725Z,21.59
2018-12-25T06:40:17.726Z,21.64
2018-12-25T06:41:17.704Z,21.61
2018-12-25T06:42:17.711Z,21.63
2018-12-25T06:43:17.681Z,21.67
2018-12-25T06:44:17.669Z,21.63
2018-12-25T06:45:17.661Z,21.58
2018-12-25T06:46:17.664Z,21.58
2018-12-25T06:47:17.661Z,21.51
2018-12-25T06:48:17.629Z,21.55
2018-12-25T06:49:17.613Z,21.58
2018-12-25T06:50:17.603Z,21.55
2018-12-25T06:51:17.600Z,21.49
2018-12-25T06:52:17.628Z,21.52
2018-12-25T06:53:17.570Z,21.46
2018-12-25T06:54:17.569Z,21.51
2018-12-25T06:55:17.549Z,21.46
2018-12-25T06:56:17.538Z,21.46
2018-12-25T06:57:17.530Z,21.45
2018-12-25T06:58:17.541Z,21.46
2018-12-25T06:59:17.507Z,21.43
2018-12-25T07:00:17.494Z,21.36
2018-12-25T07:01:17.484Z,21.37
2018-12-25T07:02:17.482Z,21.38
2018-12-25T07:03:17.478Z,21.38
2018-12-25T07:04:17.466Z,21.36
2018-12-25T07:05:17.443Z,21.36
2018-12-25T07:06:17.443Z,21.37
2018-12-25T07:07:17.418Z,21.37
2018-12-25T07:08:17.424Z,21.36
2018-12-25T07:09:17.401Z,21.27
2018-12-25T07:10:17.409Z,21.36
2018-12-25T07:11:17.379Z,21.27
2018-12-25T07:12:17.380Z,21.27
2018-12-25T07:13:17.376Z,21.30
2018-12-25T07:14:17.343Z,21.24
2018-12-25T07:15:17.331Z,21.27
2018-12-25T07:16:17.331Z,21.28
2018-12-25T07:17:17.312Z,21.26
2018-12-25T07:18:17.318Z,21.24
2018-12-25T07:19:17.288Z,21.24
2018-12-25T07:20:17.275Z,21.30
2018-12-25T07:21:17.271Z,21.22
2018-12-25T07:22:17.255Z,21.24
2018-12-25T07:23:17.277Z,21.27
2018-12-25T07:24:17.232Z,21.31
2018-12-25T07:25:17.222Z,21.31
2018-12-25T07:26:17.212Z,21.24
2018-12-25T07:27:17.207Z,21.38
2018-12-25T07:28:17.208Z,21.37
2018-12-25T07:29:17.203Z,21.33
2018-12-25T07:30:17.168Z,21.38
2018-12-25T07:31:17.156Z,21.42
2018-12-25T07:32:17.147Z,21.37
2018-12-25T07:33:17.158Z,21.37
2018-12-25T07:34:17.134Z,21.42
2018-12-25T07:35:17.124Z,21.37
2018-12-25T07:36:17.102Z,21.38
2018-12-25T07:37:17.096Z,21.36
2018-12-25T07:38:17.097Z,21.43
2018-12-25T07:39:17.070Z,21.42
2018-12-25T07:40:17.070Z,21.45
2018-12-25T07:41:17.089Z,21.51
2018-12-25T07:42:17.037Z,21.46
2018-12-25T07:43:17.041Z,21.48
2018-12-25T07:44:17.025Z,21.53
2018-12-25T07:45:17.005Z,21.51
2018-12-25T07:46:16.994Z,21.52
2018-12-25T07:47:16.996Z,21.49
2018-12-25T07:48:16.993Z,21.53
2018-12-25T07:49:16.961Z,21.51
2018-12-25T07:50:16.950Z,21.48
2018-12-25T07:51:20.658Z,21.55
2018-12-25T07:52:16.933Z,21.56
2018-12-25T07:53:16.936Z,21.46
2018-12-25T07:54:17.026Z,21.58
2018-12-25T07:55:16.903Z,21.58
2018-12-25T07:56:16.890Z,21.56
2018-12-25T07:57:16.875Z,21.58
2018-12-25T07:58:16.873Z,21.58
2018-12-25T07:59:16.894Z,21.64
2018-12-25T08:00:16.841Z,21.53
2018-12-25T08:01:18.264Z,21.59
2018-12-25T08:02:16.820Z,21.61
2018-12-25T08:03:16.848Z,21.64
2018-12-25T08:04:16.826Z,21.63
2018-12-25T08:05:16.787Z,21.59
2018-12-25T08:06:16.799Z,21.52
2018-12-25T08:07:16.790Z,21.58
2018-12-25T08:08:16.760Z,21.59
2018-12-25T08:09:16.766Z,21.58
2018-12-25T08:10:17.784Z,21.64
2018-12-25T08:11:16.751Z,21.58
2018-12-25T08:12:16.710Z,21.61
2018-12-25T08:13:16.719Z,21.58
2018-12-25T08:14:16.712Z,21.63
2018-12-25T08:15:16.692Z,21.63
2018-12-25T08:16:16.667Z,21.56
2018-12-25T08:17:16.664Z,21.59
2018-12-25T08:18:16.645Z,21.59
2018-12-25T08:19:16.653Z,21.64
2018-12-25T08:20:16.634Z,21.68
2018-12-25T08:21:16.618Z,21.55
2018-12-25T08:22:16.603Z,21.64
2018-12-25T08:23:16.628Z,21.55
2018-12-25T08:24:16.632Z,21.66
2018-12-25T08:25:16.570Z,21.58
2018-12-25T08:26:16.559Z,21.59
2018-12-25T08:27:16.573Z,21.66
2018-12-25T08:28:16.544Z,21.55
2018-12-25T08:29:16.706Z,21.59
2018-12-25T08:30:16.582Z,21.58
2018-12-25T08:31:16.542Z,21.56
2018-12-25T08:32:16.497Z,21.55
2018-12-25T08:33:16.844Z,21.56
2018-12-25T08:34:16.482Z,21.58
2018-12-25T08:35:16.486Z,21.67
2018-12-25T08:36:16.514Z,21.56
2018-12-25T08:37:16.442Z,21.58
2018-12-25T08:38:16.439Z,21.61
2018-12-25T08:39:16.445Z,21.59
2018-12-25T08:40:16.603Z,21.56
2018-12-25T08:41:16.401Z,21.56
2018-12-25T08:42:16.388Z,21.64
2018-12-25T08:43:16.379Z,21.59
2018-12-25T08:44:16.754Z,21.51
2018-12-25T08:45:16.387Z,21.46
2018-12-25T08:46:16.346Z,21.51
2018-12-25T08:47:16.338Z,21.61
2018-12-25T08:48:16.324Z,21.52
2018-12-25T08:49:16.313Z,21.52
2018-12-25T08:50:16.482Z,21.53
2018-12-25T08:51:16.353Z,21.55
2018-12-25T08:52:16.282Z,21.56
2018-12-25T08:53:16.270Z,21.53
2018-12-25T08:54:16.259Z,21.55
2018-12-25T08:55:16.261Z,21.55
2018-12-25T08:56:16.263Z,21.58
2018-12-25T08:57:16.243Z,21.52
2018-12-25T08:58:16.218Z,21.64
2018-12-25T08:59:16.264Z,21.67
2018-12-25T09:00:16.197Z,21.67
2018-12-25T09:01:16.929Z,21.64
2018-12-25T09:02:16.183Z,21.74
2018-12-25T09:03:16.229Z,21.75
2018-12-25T09:04:16.236Z,21.79
2018-12-25T09:05:16.142Z,21.85
2018-12-25T09:06:16.151Z,21.85
2018-12-25T09:07:16.121Z,21.89
2018-12-25T09:08:16.174Z,21.90
2018-12-25T09:09:16.101Z,21.93
2018-12-25T09:10:16.093Z,22.02
2018-12-25T09:11:16.147Z,22.02
2018-12-25T09:12:16.071Z,21.98
2018-12-25T09:13:16.057Z,21.99
2018-12-25T09:14:17.404Z,22.14
2018-12-25T09:15:16.172Z,22.12
2018-12-25T09:16:16.026Z,22.20
2018-12-25T09:17:16.030Z,22.14
2018-12-25T09:18:16.514Z,22.11
2018-12-25T09:19:16.000Z,22.08
2018-12-25T09:20:15.992Z,22.08
2018-12-25T09:21:15.993Z,22.12
2018-12-25T09:22:16.025Z,22.01
2018-12-25T09:23:16.179Z,22.01
2018-12-25T09:24:15.948Z,22.06
2018-12-25T09:25:15.945Z,22.15
2018-12-25T09:26:15.922Z,22.12
2018-12-25T09:27:15.927Z,21.98
2018-12-25T09:28:17.880Z,21.98
2018-12-25T09:29:18.471Z,21.99
2018-12-25T09:30:15.876Z,21.99
2018-12-25T09:31:15.868Z,21.98
2018-12-25T09:32:15.872Z,21.99
2018-12-25T09:33:15.848Z,21.99
2018-12-25T09:34:15.835Z,21.99
2018-12-25T09:35:16.935Z,21.89
2018-12-25T09:36:15.929Z,21.99
2018-12-25T09:37:15.822Z,21.90
2018-12-25T09:38:15.805Z,21.85
2018-12-25T09:39:20.383Z,21.93
2018-12-25T09:40:16.392Z,21.91
2018-12-25T09:41:15.761Z,21.90
2018-12-25T09:42:15.767Z,21.86
2018-12-25T09:43:15.854Z,21.86
2018-12-25T09:44:15.872Z,21.90
2018-12-25T09:45:15.729Z,21.73
2018-12-25T09:46:16.228Z,21.85
2018-12-25T09:47:15.713Z,21.82
2018-12-25T09:48:15.695Z,21.73
2018-12-25T09:49:15.679Z,21.75
2018-12-25T09:50:15.696Z,21.74
2018-12-25T09:51:15.656Z,21.66
2018-12-25T09:52:16.424Z,21.63
2018-12-25T09:53:16.334Z,21.70
2018-12-25T09:54:15.625Z,21.68
2018-12-25T09:55:15.615Z,21.64
2018-12-25T09:56:15.632Z,21.64
2018-12-25T09:57:15.629Z,21.61
2018-12-25T09:58:15.579Z,21.56
2018-12-25T09:59:15.568Z,21.67
2018-12-25T10:00:15.764Z,21.56
2018-12-25T10:01:15.565Z,21.59
2018-12-25T10:02:15.568Z,21.55
2018-12-25T10:03:15.530Z,21.53
2018-12-25T10:04:15.534Z,21.56
2018-12-25T10:05:15.516Z,21.56
2018-12-25T10:06:15.518Z,21.55
2018-12-25T10:07:15.499Z,21.51
2018-12-25T10:08:15.495Z,21.53
2018-12-25T10:09:15.467Z,21.56
2018-12-25T10:10:15.450Z,21.53
2018-12-25T10:11:15.448Z,21.55
2018-12-25T10:12:16.007Z,21.52
2018-12-25T10:13:15.431Z,21.49
2018-12-25T10:14:15.407Z,21.55
2018-12-25T10:15:15.982Z,21.48
2018-12-25T10:16:15.745Z,21.51
2018-12-25T10:17:15.649Z,21.51
2018-12-25T10:18:15.366Z,21.46
2018-12-25T10:19:15.360Z,21.48
2018-12-25T10:20:15.342Z,21.43
2018-12-25T10:21:15.589Z,21.43
2018-12-25T10:22:15.812Z,21.46
2018-12-25T10:23:15.316Z,21.43
2018-12-25T10:24:16.413Z,21.40
2018-12-25T10:25:15.321Z,21.43
2018-12-25T10:26:15.279Z,21.40
2018-12-25T10:27:15.322Z,21.40
2018-12-25T10:28:15.256Z,21.34
2018-12-25T10:29:15.254Z,21.34
2018-12-25T10:30:15.238Z,21.38
2018-12-25T10:31:15.251Z,21.36
2018-12-25T10:32:15.214Z,21.42
2018-12-25T10:33:15.217Z,21.42
2018-12-25T10:34:15.193Z,21.37
2018-12-25T10:35:15.191Z,21.37
2018-12-25T10:36:15.829Z,21.40
2018-12-25T10:37:15.177Z,21.34
2018-12-25T10:38:15.181Z,21.43
2018-12-25T10:39:15.142Z,21.43
2018-12-25T10:40:15.488Z,21.37
2018-12-25T10:41:15.526Z,21.31
2018-12-25T10:42:15.112Z,21.33
2018-12-25T10:43:15.132Z,21.30
2018-12-25T10:44:15.093Z,21.28
2018-12-25T10:45:15.076Z,21.24
2018-12-25T10:46:15.064Z,21.30
2018-12-25T10:47:15.074Z,21.21
2018-12-25T10:48:15.050Z,21.28
2018-12-25T10:49:15.058Z,21.28
2018-12-25T10:50:15.020Z,21.16
2018-12-25T10:51:15.008Z,21.28
2018-12-25T10:52:15.008Z,21.24
2018-12-25T10:53:14.987Z,21.19
2018-12-25T10:54:14.994Z,21.26
2018-12-25T10:55:14.966Z,21.22
2018-12-25T10:56:14.953Z,21.24
2018-12-25T10:57:14.945Z,21.12
2018-12-25T10:58:14.943Z,21.15
2018-12-25T10:59:14.947Z,21.15
2018-12-25T11:00:14.919Z,21.21
2018-12-25T11:01:14.901Z,21.09
2018-12-25T11:02:14.888Z,21.16
2018-12-25T11:03:14.890Z,21.18
2018-12-25T11:04:14.885Z,21.11
2018-12-25T11:05:14.872Z,21.15
2018-12-25T11:06:14.845Z,21.11
2018-12-25T11:07:14.835Z,21.16
2018-12-25T11:08:14.822Z,21.21
2018-12-25T11:09:14.827Z,21.12
2018-12-25T11:10:14.830Z,21.09
2018-12-25T11:11:14.875Z,21.18
2018-12-25T11:12:14.792Z,21.18
2018-12-25T11:13:14.769Z,21.15
2018-12-25T11:14:14.781Z,21.18
2018-12-25T11:15:14.747Z,21.12
2018-12-25T11:16:14.753Z,21.12
2018-12-25T11:17:15.198Z,21.19
2018-12-25T11:18:15.208Z,21.24
2018-12-25T11:19:15.535Z,21.28
2018-12-25T11:20:14.710Z,21.31
2018-12-25T11:21:15.892Z,21.40
2018-12-25T11:22:19.845Z,21.36
2018-12-25T11:23:15.664Z,21.37
2018-12-25T11:24:14.662Z,21.45
2018-12-25T11:25:14.653Z,21.51
2018-12-25T11:26:14.633Z,21.52
2018-12-25T11:27:14.616Z,21.45
2018-12-25T11:28:14.615Z,21.55
2018-12-25T11:29:14.602Z,21.51
2018-12-25T11:30:14.608Z,21.63
2018-12-25T11:31:14.580Z,21.61
2018-12-25T11:32:14.561Z,21.58
2018-12-25T11:33:14.560Z,21.58
2018-12-25T11:34:14.539Z,21.55
2018-12-25T11:35:14.545Z,21.55
2018-12-25T11:36:14.519Z,21.56
2018-12-25T11:37:14.516Z,21.64
2018-12-25T11:38:14.497Z,21.59
2018-12-25T11:39:14.490Z,21.53
2018-12-25T11:40:14.497Z,21.55
2018-12-25T11:41:14.465Z,21.63
2018-12-25T11:42:14.462Z,21.56
2018-12-25T11:43:14.453Z,21.63
2018-12-25T11:44:14.431Z,21.56
2018-12-25T11:45:14.440Z,21.59
2018-12-25T11:46:14.413Z,21.55
2018-12-25T11:47:14.404Z,21.53
2018-12-25T11:48:14.388Z,21.53
2018-12-25T11:49:14.384Z,21.63
2018-12-25T11:50:14.395Z,21.59
2018-12-25T11:51:14.356Z,21.56
2018-12-25T11:52:14.356Z,21.56
2018-12-25T11:53:14.336Z,21.61
2018-12-25T11:54:14.328Z,21.66
2018-12-25T11:55:14.328Z,21.63
2018-12-25T11:56:14.310Z,21.67
2018-12-25T11:57:14.319Z,21.71
2018-12-25T11:58:14.280Z,21.63
2018-12-25T11:59:14.271Z,21.61
2018-12-25T12:00:14.297Z,21.67
2018-12-25T12:01:14.256Z,21.67
2018-12-25T12:02:17.233Z,21.68
2018-12-25T12:03:14.233Z,21.71
2018-12-25T12:04:14.219Z,21.66
2018-12-25T12:05:14.239Z,21.63
2018-12-25T12:06:14.196Z,21.61
2018-12-25T12:07:14.185Z,21.64
2018-12-25T12:08:14.183Z,21.68
2018-12-25T12:09:14.164Z,21.71
2018-12-25T12:10:14.173Z,21.55
2018-12-25T12:11:14.140Z,21.56
2018-12-25T12:12:14.140Z,21.55
2018-12-25T12:13:14.119Z,21.56
2018-12-25T12:14:14.112Z,21.64
2018-12-25T12:15:14.137Z,21.58
2018-12-25T12:16:14.094Z,21.56
2018-12-25T12:17:14.074Z,21.61
2018-12-25T12:18:14.073Z,21.56
2018-12-25T12:19:14.057Z,21.51
2018-12-25T12:20:14.049Z,21.49
2018-12-25T12:21:14.055Z,21.56
2018-12-25T12:22:14.026Z,21.46
2018-12-25T12:23:14.012Z,21.55
2018-12-25T12:24:14.377Z,21.51
2018-12-25T12:25:13.995Z,21.51
2018-12-25T12:26:14.002Z,21.45
2018-12-25T12:27:13.980Z,21.45
2018-12-25T12:28:13.955Z,21.46
2018-12-25T12:29:13.945Z,21.53
2018-12-25T12:30:13.947Z,21.51
2018-12-25T12:31:13.939Z,21.46
2018-12-25T12:32:13.914Z,21.42
2018-12-25T12:33:15.557Z,21.40
2018-12-25T12:34:13.890Z,21.40
2018-12-25T12:35:13.881Z,21.38
2018-12-25T12:36:13.896Z,21.38
2018-12-25T12:37:13.859Z,21.38
2018-12-25T12:38:13.847Z,21.37
2018-12-25T12:39:13.841Z,21.38
2018-12-25T12:40:13.825Z,21.38
2018-12-25T12:41:13.835Z,21.37
2018-12-25T12:42:13.813Z,21.31
2018-12-25T12:43:13.793Z,21.37
2018-12-25T12:44:13.787Z,21.33
2018-12-25T12:45:13.809Z,21.36
2018-12-25T12:46:13.907Z,21.37
2018-12-25T12:47:13.757Z,21.33
2018-12-25T12:48:13.746Z,21.34
2018-12-25T12:49:13.732Z,21.34
2018-12-25T12:50:13.718Z,21.36
2018-12-25T12:51:13.717Z,21.36
2018-12-25T12:52:13.717Z,21.36